Terminal Aerodrome Forecast
Issued by NWS

Home | Current Version | Previous Version | Graphics & Text | Print | Product List | Glossary On
Versions: 1 2 3 4 5 6 7 8 9 10 11 12 13
000
FTUS43 KTOP 252300
TAFFOE
TAF
KFOE 252320Z 2600/2624 19016G23KT P6SM FEW150
     FM261500 22016KT P6SM SCT120=

USA.gov is the U.S. government's official web portal to all federal, state and local government web resources and services.